OITK  Khoy Airport

Add Bookmark

Khoy, Iran

Status IATA
Operational KHY
Latitude Longitude
38° 25' 39" N 44° 58' 24" E
38.427502 44.973598
Local (DST + 5) UTC (GMT + 4)
Feb 2, 2015 03:41 Feb 2, 2015 00:11
Sunrise-Sunset Local UTC
Begin Civil Twilight 07:05 03:35
Sunrise 07:33 04:03
Sunset 05:54 14:24
End Civil Twilight 06:22 14:52

Current Weather

METAR Observed VFR
OITK 011100Z 33002KT 9999 FEW035 BKN190 11/M01 Q1018 Sun, Feb 1, 2015 @ 11:00 UTC
(13 Hours, 11 Minutes ago)
Visual Flight Rules
Wind Visibility Clouds Conditions
330° at 2 knots (4 kph) 10 km or more
  • Few at 3,500' AGL
  • Broken at 19,000' AGL
  • No significant weather
Temperatures Readings Precipitation
Current Temp 11°C (52°F)
Dewpoint -1°C (30°F)
Humidity 44%
Altimeter 30.06"Hg
Sea Level Pressure 1018mb
Field Elevation 3631.89'
None Recorded

Additional weather within a 92.6km radius of OITK

Map ICAO Location
OITR 84.8km S (174°)

24 Hour Weather History

Loading
-

24 Hour Weather Graphs

Loading
-

CheckWX.com is intended as a tool to help pilots better visualize weather data. It is not intended as a substitute for an official weather briefing obtained from a Flight Service Station. CheckWX.com does not meet the FAA requirements for an official pre-flight weather briefing. Therefore, it's important that pilots still call and obtain an official FSS pre-flight weather briefing.